createdAt,value
2022-09-20T00:00:15.589Z,11.25
2022-09-20T00:01:15.664Z,11.27
2022-09-20T00:02:15.540Z,11.29
2022-09-20T00:03:15.523Z,11.27
2022-09-20T00:04:15.515Z,11.32
2022-09-20T00:05:15.586Z,11.29
2022-09-20T00:06:15.492Z,11.24
2022-09-20T00:07:15.481Z,11.29
2022-09-20T00:08:15.472Z,11.27
2022-09-20T00:09:15.458Z,11.31
2022-09-20T00:10:15.473Z,11.27
2022-09-20T00:11:15.462Z,11.24
2022-09-20T00:12:15.430Z,11.28
2022-09-20T00:13:15.417Z,11.27
2022-09-20T00:14:15.430Z,11.35
2022-09-20T00:15:15.393Z,11.29
2022-09-20T00:16:15.438Z,11.24
2022-09-20T00:17:15.378Z,11.25
2022-09-20T00:18:15.362Z,11.24
2022-09-20T00:19:15.360Z,11.28
2022-09-20T00:20:15.341Z,11.24
2022-09-20T00:21:15.329Z,11.25
2022-09-20T00:22:15.320Z,11.24
2022-09-20T00:23:15.307Z,11.21
2022-09-20T00:24:15.310Z,11.29
2022-09-20T00:25:15.285Z,11.19
2022-09-20T00:26:15.276Z,11.25
2022-09-20T00:27:15.276Z,11.25
2022-09-20T00:28:15.258Z,11.16
2022-09-20T00:29:15.253Z,11.13
2022-09-20T00:30:15.236Z,11.20
2022-09-20T00:31:15.315Z,11.16
2022-09-20T00:32:15.292Z,11.17
2022-09-20T00:33:15.199Z,11.11
2022-09-20T00:34:15.201Z,11.10
2022-09-20T00:35:15.179Z,11.13
2022-09-20T00:36:15.173Z,11.13
2022-09-20T00:37:15.157Z,11.01
2022-09-20T00:38:15.149Z,11.06
2022-09-20T00:39:15.148Z,11.10
2022-09-20T00:40:15.209Z,11.03
2022-09-20T00:41:15.114Z,10.99
2022-09-20T00:42:15.111Z,11.03
2022-09-20T00:43:15.091Z,11.06
2022-09-20T00:44:15.091Z,11.03
2022-09-20T00:45:15.070Z,11.10
2022-09-20T00:46:15.135Z,11.09
2022-09-20T00:47:15.047Z,11.07
2022-09-20T00:48:15.055Z,11.03
2022-09-20T00:49:15.037Z,10.96
2022-09-20T00:50:15.015Z,11.07
2022-09-20T00:51:15.006Z,11.01
2022-09-20T00:52:14.995Z,10.98
2022-09-20T00:53:14.984Z,10.99
2022-09-20T00:54:19.500Z,10.94
2022-09-20T00:55:15.964Z,10.96
2022-09-20T00:56:14.951Z,11.01
2022-09-20T00:57:14.938Z,11.01
2022-09-20T00:58:14.929Z,11.02
2022-09-20T00:59:14.934Z,10.92
2022-09-20T01:00:14.909Z,10.96
2022-09-20T01:01:14.971Z,10.96
2022-09-20T01:02:14.921Z,10.99
2022-09-20T01:03:14.873Z,11.06
2022-09-20T01:04:14.897Z,10.99
2022-09-20T01:05:14.857Z,10.98
2022-09-20T01:06:14.843Z,10.95
2022-09-20T01:07:14.831Z,10.88
2022-09-20T01:08:14.828Z,10.84
2022-09-20T01:09:14.809Z,10.84
2022-09-20T01:10:14.799Z,10.88
2022-09-20T01:11:14.788Z,10.86
2022-09-20T01:12:14.778Z,10.84
2022-09-20T01:13:14.770Z,10.88
2022-09-20T01:14:14.756Z,10.84
2022-09-20T01:15:14.745Z,10.89
2022-09-20T01:16:14.802Z,10.86
2022-09-20T01:17:14.722Z,10.92
2022-09-20T01:18:14.728Z,10.89
2022-09-20T01:19:14.703Z,10.77
2022-09-20T01:20:14.708Z,10.91
2022-09-20T01:21:14.679Z,10.94
2022-09-20T01:22:14.668Z,10.81
2022-09-20T01:23:14.657Z,10.84
2022-09-20T01:24:14.657Z,10.91
2022-09-20T01:25:14.633Z,10.83
2022-09-20T01:26:14.626Z,10.83
2022-09-20T01:27:14.612Z,10.80
2022-09-20T01:28:14.612Z,10.81
2022-09-20T01:29:14.591Z,10.81
2022-09-20T01:30:14.579Z,10.86
2022-09-20T01:31:14.681Z,10.89
2022-09-20T01:32:14.557Z,10.88
2022-09-20T01:33:14.572Z,10.89
2022-09-20T01:34:14.535Z,10.81
2022-09-20T01:35:14.526Z,10.74
2022-09-20T01:36:14.530Z,10.77
2022-09-20T01:37:14.503Z,10.84
2022-09-20T01:38:14.494Z,10.81
2022-09-20T01:39:14.494Z,10.80
2022-09-20T01:40:14.550Z,10.83
2022-09-20T01:41:14.460Z,10.80
2022-09-20T01:42:14.446Z,10.86
2022-09-20T01:43:14.438Z,10.76
2022-09-20T01:44:14.435Z,10.80
2022-09-20T01:45:14.435Z,10.83
2022-09-20T01:46:14.454Z,10.81
2022-09-20T01:47:14.395Z,10.91
2022-09-20T01:48:14.393Z,10.84
2022-09-20T01:49:14.373Z,10.95
2022-09-20T01:50:14.360Z,10.94
2022-09-20T01:51:14.352Z,10.84
2022-09-20T01:52:14.354Z,10.84
2022-09-20T01:53:14.342Z,10.81
2022-09-20T01:54:14.316Z,10.86
2022-09-20T01:55:14.308Z,10.88
2022-09-20T01:56:14.296Z,10.81
2022-09-20T01:57:14.286Z,10.84
2022-09-20T01:58:14.284Z,10.81
2022-09-20T01:59:25.177Z,10.88
2022-09-20T02:00:15.249Z,10.76
2022-09-20T02:01:14.285Z,10.83
2022-09-20T02:02:14.314Z,10.84
2022-09-20T02:03:14.229Z,10.76
2022-09-20T02:04:14.207Z,10.83
2022-09-20T02:05:14.197Z,10.77
2022-09-20T02:06:14.183Z,10.76
2022-09-20T02:07:14.175Z,10.81
2022-09-20T02:08:14.190Z,10.77
2022-09-20T02:09:14.153Z,10.84
2022-09-20T02:10:14.140Z,10.71
2022-09-20T02:11:14.155Z,10.74
2022-09-20T02:12:14.118Z,10.71
2022-09-20T02:13:14.122Z,10.81
2022-09-20T02:14:14.095Z,10.77
2022-09-20T02:15:14.090Z,10.83
2022-09-20T02:16:14.121Z,10.68
2022-09-20T02:17:14.063Z,10.65
2022-09-20T02:18:14.065Z,10.74
2022-09-20T02:19:14.048Z,10.63
2022-09-20T02:20:14.029Z,10.71
2022-09-20T02:21:14.022Z,10.74
2022-09-20T02:22:14.005Z,10.73
2022-09-20T02:23:14.039Z,10.73
2022-09-20T02:24:14.001Z,10.80
2022-09-20T02:25:13.975Z,10.78
2022-09-20T02:26:13.964Z,10.78
2022-09-20T02:27:13.953Z,10.80
2022-09-20T02:28:13.951Z,10.74
2022-09-20T02:29:13.930Z,10.74
2022-09-20T02:30:13.917Z,10.80
2022-09-20T02:31:13.997Z,10.77
2022-09-20T02:32:13.898Z,10.77
2022-09-20T02:33:13.908Z,10.76
2022-09-20T02:34:13.874Z,10.80
2022-09-20T02:35:13.917Z,10.78
2022-09-20T02:36:13.854Z,10.77
2022-09-20T02:37:13.844Z,10.81
2022-09-20T02:38:13.840Z,10.80
2022-09-20T02:39:13.820Z,10.77
2022-09-20T02:40:13.912Z,10.76
2022-09-20T02:41:13.805Z,10.77
2022-09-20T02:42:13.787Z,10.77
2022-09-20T02:43:13.794Z,10.83
2022-09-20T02:44:13.764Z,10.80
2022-09-20T02:45:13.756Z,10.76
2022-09-20T02:46:13.795Z,10.74
2022-09-20T02:47:13.734Z,10.73
2022-09-20T02:48:13.733Z,10.74
2022-09-20T02:49:13.715Z,10.77
2022-09-20T02:50:13.700Z,10.94
2022-09-20T02:51:13.691Z,10.84
2022-09-20T02:52:13.679Z,10.86
2022-09-20T02:53:13.681Z,10.83
2022-09-20T02:54:13.657Z,10.89
2022-09-20T02:55:13.649Z,10.83
2022-09-20T02:56:13.653Z,10.95
2022-09-20T02:57:13.626Z,10.76
2022-09-20T02:58:13.625Z,10.99
2022-09-20T02:59:13.604Z,10.94
2022-09-20T03:00:13.591Z,10.84
2022-09-20T03:01:13.671Z,10.89
2022-09-20T03:02:13.674Z,10.88
2022-09-20T03:03:13.576Z,11.02
2022-09-20T03:04:13.548Z,10.96
2022-09-20T03:05:13.538Z,10.92
2022-09-20T03:06:13.529Z,10.92
2022-09-20T03:07:13.516Z,10.91
2022-09-20T03:08:13.513Z,10.89
2022-09-20T03:09:13.497Z,10.92
2022-09-20T03:10:13.483Z,10.94
2022-09-20T03:11:13.471Z,10.94
2022-09-20T03:12:13.478Z,10.95
2022-09-20T03:13:13.466Z,10.94
2022-09-20T03:14:13.442Z,10.98
2022-09-20T03:15:13.430Z,10.89
2022-09-20T03:16:13.468Z,10.92
2022-09-20T03:17:13.409Z,10.99
2022-09-20T03:18:13.413Z,10.92
2022-09-20T03:19:13.385Z,10.94
2022-09-20T03:20:13.380Z,10.94
2022-09-20T03:21:13.384Z,10.91
2022-09-20T03:22:13.356Z,10.98
2022-09-20T03:23:13.351Z,10.98
2022-09-20T03:24:13.332Z,10.94
2022-09-20T03:25:13.321Z,10.95
2022-09-20T03:26:13.308Z,10.95
2022-09-20T03:27:13.300Z,11.02
2022-09-20T03:28:13.312Z,10.96
2022-09-20T03:29:13.277Z,10.92
2022-09-20T03:30:13.268Z,10.94
2022-09-20T03:31:13.258Z,10.92
2022-09-20T03:32:13.282Z,10.92
2022-09-20T03:33:13.248Z,10.88
2022-09-20T03:34:13.223Z,11.02
2022-09-20T03:35:13.211Z,10.91
2022-09-20T03:36:13.200Z,10.91
2022-09-20T03:37:13.190Z,10.95
2022-09-20T03:38:13.192Z,10.99
2022-09-20T03:39:13.171Z,10.98
2022-09-20T03:40:13.218Z,10.94
2022-09-20T03:41:13.147Z,10.95
2022-09-20T03:42:13.136Z,10.96
2022-09-20T03:43:13.140Z,10.99
2022-09-20T03:44:13.134Z,10.94
2022-09-20T03:45:13.109Z,11.03
2022-09-20T03:46:13.141Z,11.03
2022-09-20T03:47:13.085Z,11.06
2022-09-20T03:48:13.093Z,11.14
2022-09-20T03:49:13.062Z,11.17
2022-09-20T03:50:13.050Z,11.19
2022-09-20T03:51:13.040Z,11.14
2022-09-20T03:52:13.027Z,11.10
2022-09-20T03:53:13.031Z,11.20
2022-09-20T03:54:13.006Z,11.17
2022-09-20T03:55:12.995Z,11.19
2022-09-20T03:56:12.990Z,11.13
2022-09-20T03:57:12.973Z,11.16
2022-09-20T03:58:13.006Z,11.24
2022-09-20T03:59:12.956Z,11.25
2022-09-20T04:00:12.955Z,11.24
2022-09-20T04:01:13.007Z,11.20
2022-09-20T04:02:12.962Z,11.19
2022-09-20T04:03:12.917Z,11.20
2022-09-20T04:04:12.907Z,11.21
2022-09-20T04:05:12.889Z,11.25
2022-09-20T04:06:12.879Z,11.24
2022-09-20T04:07:12.878Z,11.17
2022-09-20T04:08:12.853Z,11.17
2022-09-20T04:09:12.844Z,11.28
2022-09-20T04:10:12.834Z,11.24
2022-09-20T04:11:12.826Z,11.29
2022-09-20T04:12:12.810Z,11.31
2022-09-20T04:13:12.837Z,11.35
2022-09-20T04:14:12.980Z,11.32
2022-09-20T04:15:12.780Z,11.32
2022-09-20T04:16:12.853Z,11.31
2022-09-20T04:17:12.758Z,11.39
2022-09-20T04:18:12.755Z,11.25
2022-09-20T04:19:12.734Z,11.29
2022-09-20T04:20:12.721Z,11.34
2022-09-20T04:21:12.715Z,11.29
2022-09-20T04:22:12.700Z,11.29
2022-09-20T04:23:12.734Z,11.35
2022-09-20T04:24:12.681Z,11.41
2022-09-20T04:25:12.671Z,11.39
2022-09-20T04:26:12.659Z,11.41
2022-09-20T04:27:12.647Z,11.41
2022-09-20T04:28:12.651Z,11.35
2022-09-20T04:29:12.626Z,11.39
2022-09-20T04:30:12.619Z,11.36
2022-09-20T04:31:12.607Z,11.38
2022-09-20T04:32:12.799Z,11.49
2022-09-20T04:33:12.596Z,11.44
2022-09-20T04:34:12.576Z,11.49
2022-09-20T04:35:12.561Z,11.36
2022-09-20T04:36:12.550Z,11.44
2022-09-20T04:37:12.540Z,11.36
2022-09-20T04:38:12.537Z,11.43
2022-09-20T04:39:12.520Z,11.36
2022-09-20T04:40:12.541Z,11.35
2022-09-20T04:41:12.495Z,11.38
2022-09-20T04:42:12.502Z,11.38
2022-09-20T04:43:12.480Z,11.38
2022-09-20T04:44:12.460Z,11.35
2022-09-20T04:45:12.451Z,11.36
2022-09-20T04:46:12.523Z,11.36
2022-09-20T04:47:12.431Z,11.31
2022-09-20T04:48:12.444Z,11.29
2022-09-20T04:49:12.409Z,11.31
2022-09-20T04:50:12.592Z,11.31
2022-09-20T04:51:12.416Z,11.35
2022-09-20T04:52:12.375Z,11.28
2022-09-20T04:53:12.388Z,11.29
2022-09-20T04:54:12.355Z,11.28
2022-09-20T04:55:12.344Z,11.31
2022-09-20T04:56:12.329Z,11.34
2022-09-20T04:57:12.320Z,11.31
2022-09-20T04:58:12.316Z,11.32
2022-09-20T04:59:12.300Z,11.35
2022-09-20T05:00:12.286Z,11.28
2022-09-20T05:01:12.339Z,11.25
2022-09-20T05:02:12.343Z,11.32
2022-09-20T05:03:12.265Z,11.31
2022-09-20T05:04:12.337Z,11.31
2022-09-20T05:05:12.234Z,11.25
2022-09-20T05:06:12.221Z,11.27
2022-09-20T05:07:12.209Z,11.44
2022-09-20T05:08:12.210Z,11.36
2022-09-20T05:09:12.201Z,11.34
2022-09-20T05:10:12.175Z,11.35
2022-09-20T05:11:12.167Z,11.43
2022-09-20T05:12:12.155Z,11.41
2022-09-20T05:13:12.157Z,11.50
2022-09-20T05:14:12.133Z,11.44
2022-09-20T05:15:12.122Z,11.38
2022-09-20T05:16:12.210Z,11.49
2022-09-20T05:17:12.100Z,11.47
2022-09-20T05:18:12.100Z,11.39
2022-09-20T05:19:12.079Z,11.54
2022-09-20T05:20:12.088Z,11.57
2022-09-20T05:21:12.059Z,11.53
2022-09-20T05:22:12.046Z,11.56
2022-09-20T05:23:12.044Z,11.54
2022-09-20T05:24:12.690Z,11.57
2022-09-20T05:25:12.020Z,11.62
2022-09-20T05:26:12.002Z,11.65
2022-09-20T05:27:11.992Z,11.68
2022-09-20T05:28:11.988Z,11.67
2022-09-20T05:29:11.971Z,11.71
2022-09-20T05:30:11.957Z,11.67
2022-09-20T05:31:11.948Z,11.70
2022-09-20T05:32:12.029Z,11.75
2022-09-20T05:33:11.933Z,11.78
2022-09-20T05:34:11.914Z,11.82
2022-09-20T05:35:11.903Z,11.80
2022-09-20T05:36:11.909Z,11.83
2022-09-20T05:37:11.881Z,11.86
2022-09-20T05:38:11.882Z,11.82
2022-09-20T05:39:11.858Z,11.94
2022-09-20T05:40:11.903Z,12.02
2022-09-20T05:41:11.838Z,11.94
2022-09-20T05:42:11.839Z,12.12
2022-09-20T05:43:11.814Z,12.09
2022-09-20T05:44:11.807Z,12.15
2022-09-20T05:45:11.790Z,12.19
2022-09-20T05:46:11.848Z,12.26
2022-09-20T05:47:11.783Z,12.23
2022-09-20T05:48:11.764Z,12.30
2022-09-20T05:49:11.748Z,12.31
2022-09-20T05:50:11.739Z,12.33
2022-09-20T05:51:11.725Z,12.33
2022-09-20T05:52:11.751Z,12.38
2022-09-20T05:53:11.711Z,12.41
2022-09-20T05:54:11.693Z,12.60
2022-09-20T05:55:11.685Z,12.54
2022-09-20T05:56:11.671Z,12.67
2022-09-20T05:57:11.670Z,12.81
2022-09-20T05:58:11.659Z,12.89
2022-09-20T05:59:12.053Z,13.07
2022-09-20T06:00:11.629Z,13.20
2022-09-20T06:01:11.671Z,13.43
2022-09-20T06:02:11.669Z,13.61
2022-09-20T06:03:11.594Z,13.76
2022-09-20T06:04:11.585Z,13.96
2022-09-20T06:05:11.571Z,14.25
2022-09-20T06:06:11.562Z,14.44
2022-09-20T06:07:11.566Z,14.65
2022-09-20T06:08:11.557Z,14.83
2022-09-20T06:09:11.528Z,15.09
2022-09-20T06:10:11.519Z,15.26
2022-09-20T06:11:11.505Z,15.46
2022-09-20T06:12:11.508Z,15.59
2022-09-20T06:13:11.483Z,15.68
2022-09-20T06:14:11.474Z,15.85
2022-09-20T06:15:11.460Z,15.97
2022-09-20T06:16:11.485Z,15.99
2022-09-20T06:17:11.451Z,16.03
2022-09-20T06:18:11.430Z,16.03
2022-09-20T06:19:11.419Z,16.15
2022-09-20T06:20:11.409Z,16.12
2022-09-20T06:21:11.396Z,16.12
2022-09-20T06:22:11.399Z,16.06
2022-09-20T06:23:11.373Z,16.03
2022-09-20T06:24:11.380Z,16.09
2022-09-20T06:25:11.353Z,15.93
2022-09-20T06:26:11.341Z,15.96
2022-09-20T06:27:11.342Z,15.92
2022-09-20T06:28:11.320Z,15.94
2022-09-20T06:29:11.308Z,16.00
2022-09-20T06:30:11.298Z,16.04
2022-09-20T06:31:11.483Z,16.04
2022-09-20T06:32:11.290Z,16.16
2022-09-20T06:33:11.265Z,16.14
2022-09-20T06:34:11.265Z,16.18
2022-09-20T06:35:11.241Z,16.37
2022-09-20T06:36:11.233Z,16.37
2022-09-20T06:37:11.235Z,16.58
2022-09-20T06:38:11.214Z,16.74
2022-09-20T06:39:11.199Z,16.92
2022-09-20T06:40:11.241Z,17.08
2022-09-20T06:41:11.175Z,17.14
2022-09-20T06:42:11.199Z,17.17
2022-09-20T06:43:11.158Z,17.30
2022-09-20T06:44:11.144Z,17.28
2022-09-20T06:45:11.132Z,17.35
2022-09-20T06:46:11.174Z,17.43
2022-09-20T06:47:11.120Z,17.33
2022-09-20T06:48:11.100Z,17.41
2022-09-20T06:49:11.088Z,17.64
2022-09-20T06:50:11.080Z,17.74
2022-09-20T06:51:11.069Z,17.66
2022-09-20T06:52:11.067Z,17.66
2022-09-20T06:53:11.055Z,17.76
2022-09-20T06:54:11.035Z,17.87
2022-09-20T06:55:11.026Z,17.99
2022-09-20T06:56:11.048Z,17.99
2022-09-20T06:57:11.000Z,17.78
2022-09-20T06:58:11.002Z,17.55
2022-09-20T06:59:10.979Z,17.33
2022-09-20T07:00:10.976Z,17.22
2022-09-20T07:01:11.014Z,17.10
2022-09-20T07:02:11.086Z,17.14
2022-09-20T07:03:10.942Z,16.96
2022-09-20T07:04:10.927Z,16.75
2022-09-20T07:05:10.917Z,16.59
2022-09-20T07:06:10.927Z,16.38
2022-09-20T07:07:10.899Z,16.34
2022-09-20T07:08:10.882Z,16.18
2022-09-20T07:09:10.869Z,16.00
2022-09-20T07:10:10.861Z,16.01
2022-09-20T07:11:10.847Z,15.97
2022-09-20T07:12:10.866Z,16.09
2022-09-20T07:13:10.832Z,16.14
2022-09-20T07:14:10.816Z,16.48
2022-09-20T07:15:10.805Z,16.60
2022-09-20T07:16:10.830Z,16.62
2022-09-20T07:17:10.798Z,16.56
2022-09-20T07:18:10.772Z,16.45
2022-09-20T07:19:10.764Z,16.23
2022-09-20T07:20:10.750Z,16.16
2022-09-20T07:21:10.739Z,16.11
2022-09-20T07:22:10.753Z,16.06
2022-09-20T07:23:10.715Z,15.99
2022-09-20T07:24:10.706Z,15.97
2022-09-20T07:25:10.711Z,16.03
2022-09-20T07:26:10.687Z,16.22
2022-09-20T07:27:10.684Z,16.63
2022-09-20T07:28:10.680Z,16.83
2022-09-20T07:29:10.651Z,17.41
2022-09-20T07:30:10.642Z,17.79
2022-09-20T07:31:10.629Z,18.34
2022-09-20T07:32:10.631Z,18.72
2022-09-20T07:33:10.608Z,19.08
2022-09-20T07:34:10.599Z,19.33
2022-09-20T07:35:10.584Z,19.78
2022-09-20T07:36:10.585Z,20.23
2022-09-20T07:37:10.571Z,20.54
2022-09-20T07:38:10.554Z,20.89
2022-09-20T07:39:10.542Z,21.01
2022-09-20T07:40:10.592Z,21.50
2022-09-20T07:41:10.547Z,21.74
2022-09-20T07:42:10.509Z,21.92
2022-09-20T07:43:10.497Z,22.14
2022-09-20T07:44:10.503Z,22.41
2022-09-20T07:45:10.485Z,22.47
2022-09-20T07:46:10.535Z,22.34
2022-09-20T07:47:10.461Z,22.31
2022-09-20T07:48:10.447Z,22.46
2022-09-20T07:49:10.431Z,22.37
2022-09-20T07:50:10.425Z,22.32
2022-09-20T07:51:10.436Z,22.50
2022-09-20T07:52:10.415Z,22.59
2022-09-20T07:53:10.392Z,22.75
2022-09-20T07:54:10.383Z,23.07
2022-09-20T07:55:10.371Z,23.43
2022-09-20T07:56:10.365Z,23.72
2022-09-20T07:57:10.356Z,23.86
2022-09-20T07:58:10.340Z,24.02
2022-09-20T07:59:10.343Z,24.20
2022-09-20T08:00:10.338Z,24.23
2022-09-20T08:01:10.364Z,24.45
2022-09-20T08:02:10.334Z,24.39
2022-09-20T08:03:10.285Z,24.53
2022-09-20T08:04:10.275Z,24.57
2022-09-20T08:05:10.269Z,24.67
2022-09-20T08:06:10.254Z,24.95
2022-09-20T08:07:10.255Z,25.20
2022-09-20T08:08:10.234Z,25.30
2022-09-20T08:09:11.333Z,25.22
2022-09-20T08:10:10.213Z,25.39
2022-09-20T08:11:10.203Z,25.57
2022-09-20T08:14:11.171Z,25.82
2022-09-20T08:15:12.054Z,25.64
2022-09-20T08:16:10.209Z,25.61
2022-09-20T08:17:10.149Z,25.80
2022-09-20T08:18:10.131Z,25.91
2022-09-20T08:19:10.126Z,25.89
2022-09-20T08:20:10.116Z,25.97
2022-09-20T08:21:10.099Z,25.79
2022-09-20T08:22:10.101Z,25.80
2022-09-20T08:23:22.986Z,26.08
2022-09-20T08:24:11.068Z,26.25
2022-09-20T08:25:10.057Z,26.31
2022-09-20T08:26:10.049Z,26.28
2022-09-20T08:27:10.055Z,26.39
2022-09-20T08:28:10.039Z,26.62
2022-09-20T08:29:10.017Z,26.79
2022-09-20T08:30:10.009Z,26.69
2022-09-20T08:31:10.002Z,26.68
2022-09-20T08:32:10.002Z,26.39
2022-09-20T08:33:09.986Z,26.05
2022-09-20T08:34:09.968Z,26.28
2022-09-20T08:35:09.954Z,26.52
2022-09-20T08:36:09.946Z,26.68
2022-09-20T08:37:09.933Z,26.76
2022-09-20T08:40:10.958Z,26.44
2022-09-20T08:41:09.894Z,26.59
2022-09-20T08:42:09.889Z,26.81
2022-09-20T08:43:09.894Z,26.91
2022-09-20T08:44:09.864Z,26.80
2022-09-20T08:45:09.854Z,26.55
2022-09-20T08:46:09.897Z,26.27
2022-09-20T08:47:09.845Z,26.47
2022-09-20T08:48:09.851Z,26.59
2022-09-20T08:49:11.021Z,26.47
2022-09-20T08:50:11.159Z,26.49
2022-09-20T08:51:09.792Z,26.68
2022-09-20T08:52:10.826Z,26.74
2022-09-20T08:53:09.781Z,26.52
2022-09-20T08:54:09.763Z,25.99
2022-09-20T08:55:09.751Z,25.71
2022-09-20T08:56:09.742Z,25.83
2022-09-20T08:57:09.738Z,25.80
2022-09-20T08:58:09.759Z,25.93
2022-09-20T08:59:09.711Z,25.74
2022-09-20T09:00:09.702Z,25.68
2022-09-20T09:01:09.745Z,25.67
2022-09-20T09:02:09.780Z,25.74
2022-09-20T09:03:09.694Z,25.57
2022-09-20T09:04:09.700Z,25.64
2022-09-20T09:05:09.648Z,25.87
2022-09-20T09:06:13.282Z,25.89
2022-09-20T09:07:10.628Z,26.02
2022-09-20T09:08:09.635Z,26.18
2022-09-20T09:09:09.611Z,26.24
2022-09-20T09:10:09.683Z,26.27
2022-09-20T09:11:09.648Z,26.24
2022-09-20T09:12:09.584Z,26.32
2022-09-20T09:13:09.584Z,26.46
2022-09-20T09:14:09.564Z,26.73
2022-09-20T09:15:09.549Z,26.73
2022-09-20T09:16:09.587Z,26.67
2022-09-20T09:17:09.562Z,26.62
2022-09-20T09:18:09.533Z,26.76
2022-09-20T09:19:09.510Z,26.72
2022-09-20T09:20:09.519Z,26.65
2022-09-20T09:21:09.503Z,26.50
2022-09-20T09:22:09.485Z,26.79
2022-09-20T09:23:09.487Z,26.64
2022-09-20T09:24:09.473Z,26.52
2022-09-20T09:25:09.453Z,26.74
2022-09-20T09:26:09.445Z,26.98
2022-09-20T09:27:09.428Z,27.13
2022-09-20T09:28:09.430Z,27.32
2022-09-20T09:29:09.409Z,27.17
2022-09-20T09:30:09.400Z,27.10
2022-09-20T09:31:09.390Z,26.84
2022-09-20T09:32:09.420Z,27.14
2022-09-20T09:33:09.391Z,27.20
2022-09-20T09:34:09.361Z,27.42
2022-09-20T09:35:09.349Z,27.59
2022-09-20T09:36:09.356Z,27.98
2022-09-20T09:37:09.332Z,27.62
2022-09-20T09:38:09.330Z,27.33
2022-09-20T09:39:09.309Z,27.17
2022-09-20T09:40:09.329Z,27.17
2022-09-20T09:41:09.289Z,26.50
2022-09-20T09:42:09.281Z,26.69
2022-09-20T09:43:09.280Z,26.54
2022-09-20T09:44:09.260Z,26.47
2022-09-20T09:45:09.247Z,26.79
2022-09-20T09:46:09.345Z,26.79
2022-09-20T09:47:09.230Z,26.83
2022-09-20T09:48:09.229Z,26.47
2022-09-20T09:49:11.718Z,25.67
2022-09-20T09:50:10.035Z,25.43
2022-09-20T09:51:09.206Z,24.77
2022-09-20T09:52:09.197Z,24.50
2022-09-20T09:53:09.198Z,24.29
2022-09-20T09:54:09.168Z,23.87
2022-09-20T09:55:09.163Z,23.85
2022-09-20T09:56:13.924Z,23.97
2022-09-20T09:57:10.130Z,24.07
2022-09-20T09:58:09.128Z,23.98
2022-09-20T09:59:09.128Z,24.31
2022-09-20T10:00:16.678Z,24.53
2022-09-20T10:01:10.140Z,24.69
2022-09-20T10:02:09.126Z,24.60
2022-09-20T10:03:09.079Z,24.82
2022-09-20T10:04:09.134Z,24.85
2022-09-20T10:05:09.047Z,25.61
2022-09-20T10:06:09.037Z,25.54
2022-09-20T10:07:09.038Z,25.56
2022-09-20T10:08:09.040Z,25.82
2022-09-20T10:09:09.007Z,26.02
2022-09-20T10:10:08.996Z,25.67
2022-09-20T10:11:08.988Z,25.38
2022-09-20T10:12:08.986Z,25.06
2022-09-20T10:13:08.973Z,25.31
2022-09-20T10:14:08.957Z,25.44
2022-09-20T10:15:08.957Z,25.61
2022-09-20T10:16:08.988Z,25.99
2022-09-20T10:17:08.937Z,26.47
2022-09-20T10:18:08.915Z,26.44
2022-09-20T10:19:08.930Z,26.17
2022-09-20T10:20:08.895Z,26.15
2022-09-20T10:21:08.886Z,26.17
2022-09-20T10:22:08.886Z,25.91
2022-09-20T10:24:09.870Z,25.87
2022-09-20T10:25:08.848Z,25.64
2022-09-20T10:26:08.858Z,25.38
2022-09-20T10:27:08.838Z,24.91
2022-09-20T10:28:08.816Z,24.69
2022-09-20T10:29:08.812Z,24.08
2022-09-20T10:30:08.798Z,23.82
2022-09-20T10:31:08.871Z,23.42
2022-09-20T10:32:09.937Z,22.96
2022-09-20T10:33:08.768Z,22.68
2022-09-20T10:34:08.756Z,22.38
2022-09-20T10:35:08.747Z,21.95
2022-09-20T10:36:08.739Z,21.71
2022-09-20T10:37:08.762Z,21.56
2022-09-20T10:38:08.715Z,21.29
2022-09-20T10:39:08.709Z,21.29
2022-09-20T10:40:08.805Z,21.11
2022-09-20T10:41:08.685Z,21.02
2022-09-20T10:42:08.683Z,20.76
2022-09-20T10:43:08.664Z,20.64
2022-09-20T10:44:08.651Z,20.49
2022-09-20T10:45:08.647Z,20.50
2022-09-20T10:46:30.872Z,20.41
2022-09-20T10:47:09.711Z,20.35
2022-09-20T10:48:08.610Z,20.38
2022-09-20T10:49:08.600Z,20.58
2022-09-20T10:50:08.598Z,20.43
2022-09-20T10:51:08.579Z,20.41
2022-09-20T10:52:08.580Z,20.41
2022-09-20T10:53:08.558Z,20.41
2022-09-20T10:54:08.546Z,20.30
2022-09-20T10:55:08.541Z,20.35
2022-09-20T10:56:08.541Z,20.25
2022-09-20T10:57:08.525Z,20.08
2022-09-20T10:58:08.502Z,20.15
2022-09-20T10:59:08.494Z,19.95
2022-09-20T11:00:08.482Z,19.80
2022-09-20T11:01:08.544Z,19.66
2022-09-20T11:02:08.539Z,19.55
2022-09-20T11:03:08.451Z,19.53
2022-09-20T11:04:08.491Z,19.38
2022-09-20T11:05:08.428Z,19.38
2022-09-20T11:06:08.428Z,19.17
2022-09-20T11:07:08.421Z,19.08
2022-09-20T11:08:08.392Z,18.94
2022-09-20T11:09:11.882Z,18.94
2022-09-20T11:10:09.374Z,18.84
2022-09-20T11:11:08.360Z,18.74
2022-09-20T11:12:08.373Z,18.59
2022-09-20T11:13:08.341Z,18.54
2022-09-20T11:14:08.324Z,18.43
2022-09-20T11:15:08.317Z,18.39
2022-09-20T11:16:08.367Z,18.40
2022-09-20T11:17:08.305Z,18.27
2022-09-20T11:18:08.281Z,18.22
2022-09-20T11:19:08.273Z,18.29
2022-09-20T11:20:08.259Z,18.25
2022-09-20T11:21:08.250Z,18.22
2022-09-20T11:22:08.259Z,18.15
2022-09-20T11:23:08.231Z,18.13
2022-09-20T11:24:08.218Z,17.99
2022-09-20T11:25:08.206Z,17.89
2022-09-20T11:26:08.193Z,17.85
2022-09-20T11:27:08.201Z,17.67
2022-09-20T11:28:08.190Z,17.54
2022-09-20T11:29:08.164Z,17.40
2022-09-20T11:30:08.149Z,17.04
2022-09-20T11:31:08.146Z,16.73
2022-09-20T11:32:08.211Z,16.40
2022-09-20T11:33:08.120Z,16.11
2022-09-20T11:34:08.110Z,16.03
2022-09-20T11:35:08.101Z,16.01
2022-09-20T11:36:08.087Z,15.94
2022-09-20T11:37:08.087Z,15.82
2022-09-20T11:38:08.065Z,15.79
2022-09-20T11:39:08.173Z,15.68
2022-09-20T11:40:08.092Z,15.67
2022-09-20T11:41:08.079Z,15.70
2022-09-20T11:42:08.037Z,15.66
2022-09-20T11:43:08.011Z,15.57
2022-09-20T11:44:08.016Z,15.54
2022-09-20T11:45:07.991Z,15.56
2022-09-20T11:46:08.104Z,15.63
2022-09-20T11:47:08.055Z,15.66
2022-09-20T11:48:07.961Z,15.63
2022-09-20T11:49:07.946Z,15.74
2022-09-20T11:50:07.935Z,15.67
2022-09-20T11:51:07.926Z,15.74
2022-09-20T11:52:07.931Z,15.74
2022-09-20T11:53:07.902Z,15.84
2022-09-20T11:54:07.891Z,15.75
2022-09-20T11:55:07.880Z,15.82
2022-09-20T11:56:07.882Z,15.74
2022-09-20T11:57:07.867Z,15.82
2022-09-20T11:58:07.845Z,15.84
2022-09-20T11:59:07.851Z,15.86
2022-09-20T12:00:07.842Z,15.89
2022-09-20T12:01:07.815Z,16.00
2022-09-20T12:02:07.910Z,15.99
2022-09-20T12:03:07.972Z,15.97
2022-09-20T12:04:31.916Z,16.06
2022-09-20T12:05:08.772Z,16.11
2022-09-20T12:06:07.758Z,16.11
2022-09-20T12:07:10.609Z,16.15
2022-09-20T12:08:07.735Z,16.23
2022-09-20T12:09:07.731Z,16.22
2022-09-20T12:10:07.714Z,16.37
2022-09-20T12:11:07.721Z,16.37
2022-09-20T12:12:07.708Z,16.50
2022-09-20T12:13:07.686Z,16.48
2022-09-20T12:14:07.681Z,16.53
2022-09-20T12:15:07.661Z,16.65
2022-09-20T12:16:07.722Z,16.67
2022-09-20T12:17:07.649Z,16.63
2022-09-20T12:18:09.338Z,16.75
2022-09-20T12:19:07.619Z,16.78
2022-09-20T12:20:07.634Z,16.77
2022-09-20T12:21:07.599Z,16.81
2022-09-20T12:22:07.592Z,16.88
2022-09-20T12:23:07.570Z,16.96
2022-09-20T12:24:07.562Z,16.88
2022-09-20T12:25:07.549Z,16.98
2022-09-20T12:26:07.545Z,17.03
2022-09-20T12:27:07.645Z,17.03
2022-09-20T12:28:07.528Z,17.04
2022-09-20T12:29:07.510Z,17.14
2022-09-20T12:30:07.584Z,17.11
2022-09-20T12:31:07.487Z,17.11
2022-09-20T12:32:07.592Z,17.11
2022-09-20T12:33:07.464Z,17.04
2022-09-20T12:34:07.529Z,17.10
2022-09-20T12:35:07.446Z,17.07
2022-09-20T12:36:07.430Z,17.14
2022-09-20T12:37:07.441Z,17.07
2022-09-20T12:38:07.419Z,17.07
2022-09-20T12:39:07.397Z,17.04
2022-09-20T12:40:07.476Z,17.13
2022-09-20T12:41:07.374Z,17.00
2022-09-20T12:42:07.372Z,17.11
2022-09-20T12:43:07.353Z,16.99
2022-09-20T12:44:07.344Z,17.08
2022-09-20T12:45:07.340Z,16.99
2022-09-20T12:46:11.885Z,17.03
2022-09-20T12:47:07.309Z,17.11
2022-09-20T12:48:07.312Z,17.06
2022-09-20T12:49:07.287Z,17.11
2022-09-20T12:50:07.371Z,17.04
2022-09-20T12:51:07.271Z,17.10
2022-09-20T12:52:07.251Z,17.06
2022-09-20T12:53:07.244Z,17.07
2022-09-20T12:54:07.233Z,17.10
2022-09-20T12:55:10.983Z,16.98
2022-09-20T12:56:07.223Z,16.95
2022-09-20T12:57:07.202Z,16.95